createdAt,value
2022-12-23T00:01:22.775Z,4.81
2022-12-23T00:03:49.746Z,4.51
2022-12-23T00:06:17.307Z,4.22
2022-12-23T00:08:44.749Z,3.91
2022-12-23T00:11:14.045Z,3.66
2022-12-23T00:14:00.172Z,4.06
2022-12-23T00:16:27.597Z,4.78
2022-12-23T00:18:54.598Z,4.95
2022-12-23T00:21:21.624Z,4.73
2022-12-23T00:23:50.039Z,4.41
2022-12-23T00:26:21.817Z,4.08
2022-12-23T00:28:49.103Z,3.74
2022-12-23T00:31:18.726Z,4.07
2022-12-23T00:33:47.687Z,4.47
2022-12-23T00:36:16.808Z,4.43
2022-12-23T00:39:02.550Z,4.22
2022-12-23T00:41:48.638Z,3.91
2022-12-23T00:44:15.601Z,3.55
2022-12-23T00:46:42.503Z,3.26
2022-12-23T00:49:30.722Z,3.58
2022-12-23T00:51:58.064Z,4.15
2022-12-23T00:54:25.005Z,4.15
2022-12-23T00:56:52.255Z,3.92
2022-12-23T00:59:19.341Z,3.63
2022-12-23T01:02:05.456Z,3.34
2022-12-23T01:04:52.543Z,3.06
2022-12-23T01:07:19.909Z,3.63
2022-12-23T01:09:46.889Z,4.13
2022-12-23T01:12:14.189Z,4.12
2022-12-23T01:14:41.309Z,3.89
2022-12-23T01:17:08.479Z,3.58
2022-12-23T01:19:35.740Z,3.27
2022-12-23T01:22:02.721Z,3.01
2022-12-23T01:24:30.622Z,3.31
2022-12-23T01:26:57.564Z,3.87
2022-12-23T01:29:24.373Z,3.93
2022-12-23T01:31:51.484Z,3.69
2022-12-23T01:34:18.932Z,3.41
2022-12-23T01:36:46.170Z,3.14
2022-12-23T01:39:14.152Z,2.88
2022-12-23T01:42:00.197Z,3.23
2022-12-23T01:44:48.985Z,3.82
2022-12-23T01:47:40.259Z,3.83
2022-12-23T01:50:26.283Z,3.57
2022-12-23T01:53:02.978Z,3.29
2022-12-23T01:55:36.811Z,2.97
2022-12-23T01:58:13.257Z,2.76
2022-12-23T02:00:59.642Z,3.27
2022-12-23T02:03:45.410Z,3.88
2022-12-23T02:07:00.805Z,3.89
2022-12-23T02:09:32.821Z,3.59
2022-12-23T02:12:36.046Z,3.29
2022-12-23T02:15:33.362Z,2.98
2022-12-23T02:18:28.519Z,2.77
2022-12-23T02:21:04.105Z,3.59
2022-12-23T02:24:02.526Z,4.16
2022-12-23T02:27:06.703Z,4.11
2022-12-23T02:29:56.581Z,3.73
2022-12-23T02:32:30.557Z,3.37
2022-12-23T02:35:28.936Z,3.06
2022-12-23T02:38:16.544Z,2.80
2022-12-23T02:40:52.799Z,3.56
2022-12-23T02:43:41.728Z,4.16
2022-12-23T02:46:13.756Z,4.14
2022-12-23T02:49:13.219Z,3.89
2022-12-23T02:51:45.958Z,3.57
2022-12-23T02:54:14.562Z,3.31
2022-12-23T02:56:43.412Z,3.06
2022-12-23T02:59:16.212Z,3.51
2022-12-23T03:01:43.353Z,4.11
2022-12-23T03:04:10.480Z,4.16
2022-12-23T03:06:40.052Z,3.98
2022-12-23T03:09:07.308Z,3.75
2022-12-23T03:11:47.847Z,3.50
2022-12-23T03:14:36.297Z,3.24
2022-12-23T03:17:54.090Z,3.80
2022-12-23T03:20:25.711Z,4.35
2022-12-23T03:23:26.043Z,4.26
2022-12-23T03:26:07.758Z,3.94
2022-12-23T03:28:49.496Z,3.59
2022-12-23T03:31:26.564Z,3.27
2022-12-23T03:33:56.383Z,3.05
2022-12-23T03:36:29.878Z,3.61
2022-12-23T03:38:57.463Z,4.30
2022-12-23T03:41:31.919Z,4.42
2022-12-23T03:44:02.312Z,4.24
2022-12-23T03:46:58.466Z,3.91
2022-12-23T03:49:31.707Z,3.58
2022-12-23T03:52:04.381Z,3.36
2022-12-23T03:54:36.524Z,3.86
2022-12-23T03:57:05.168Z,4.40
2022-12-23T03:59:34.724Z,4.47
2022-12-23T04:02:09.397Z,4.31
2022-12-23T04:05:14.302Z,4.08
2022-12-23T04:07:43.608Z,3.76
2022-12-23T04:10:10.809Z,3.51
2022-12-23T04:12:38.503Z,3.98
2022-12-23T04:15:12.293Z,4.56
2022-12-23T04:17:39.996Z,4.66
2022-12-23T04:20:08.190Z,4.47
2022-12-23T04:22:35.637Z,4.19
2022-12-23T04:25:02.726Z,3.97
2022-12-23T04:27:30.055Z,3.72
2022-12-23T04:29:57.295Z,4.18
2022-12-23T04:32:24.196Z,4.82
2022-12-23T04:34:51.071Z,4.95
2022-12-23T04:37:17.925Z,4.83
2022-12-23T04:39:44.888Z,4.59
2022-12-23T04:42:11.785Z,4.35
2022-12-23T04:44:38.723Z,4.12
2022-12-23T04:47:05.754Z,4.44
2022-12-23T04:49:33.254Z,4.99
2022-12-23T04:52:00.136Z,5.07
2022-12-23T04:54:27.124Z,4.88
2022-12-23T04:56:54.106Z,4.60
2022-12-23T04:59:21.231Z,4.30
2022-12-23T05:01:48.187Z,4.06
2022-12-23T05:04:15.118Z,4.41
2022-12-23T05:06:42.053Z,4.96
2022-12-23T05:09:09.064Z,4.99
2022-12-23T05:11:41.911Z,4.74
2022-12-23T05:14:10.569Z,4.42
2022-12-23T05:16:38.022Z,4.11
2022-12-23T05:19:06.851Z,3.79
2022-12-23T05:21:33.826Z,3.48
2022-12-23T05:24:00.772Z,3.86
2022-12-23T05:26:27.836Z,4.44
2022-12-23T05:28:55.139Z,4.50
2022-12-23T05:31:22.065Z,4.29
2022-12-23T05:33:49.028Z,4.04
2022-12-23T05:36:16.056Z,3.81
2022-12-23T05:38:42.888Z,3.58
2022-12-23T05:41:10.078Z,3.39
2022-12-23T05:43:36.974Z,3.88
2022-12-23T05:46:04.091Z,4.53
2022-12-23T05:48:31.156Z,4.65
2022-12-23T05:50:58.179Z,4.48
2022-12-23T05:53:25.992Z,4.25
2022-12-23T05:55:52.852Z,4.02
2022-12-23T05:58:19.848Z,3.82
2022-12-23T06:00:46.756Z,4.25
2022-12-23T06:03:13.970Z,4.89
2022-12-23T06:05:43.595Z,5.03
2022-12-23T06:08:10.786Z,4.84
2022-12-23T06:10:38.644Z,4.60
2022-12-23T06:13:05.527Z,4.37
2022-12-23T06:15:33.308Z,4.18
2022-12-23T06:18:00.207Z,4.04
2022-12-23T06:20:27.367Z,4.49
2022-12-23T06:22:55.081Z,5.14
2022-12-23T06:25:21.938Z,5.24
2022-12-23T06:27:48.863Z,5.09
2022-12-23T06:30:18.122Z,4.84
2022-12-23T06:32:45.082Z,4.59
2022-12-23T06:35:11.987Z,4.37
2022-12-23T06:37:38.913Z,4.19
2022-12-23T06:40:06.461Z,4.66
2022-12-23T06:42:33.434Z,5.29
2022-12-23T06:45:00.515Z,5.42
2022-12-23T06:47:28.276Z,5.29
2022-12-23T06:49:55.344Z,5.05
2022-12-23T06:52:23.141Z,4.78
2022-12-23T06:54:50.109Z,4.50
2022-12-23T06:57:16.943Z,4.23
2022-12-23T11:13:33.741Z,9.01
2022-12-23T11:16:19.793Z,10.21
2022-12-23T11:18:57.925Z,11.01
2022-12-23T11:21:25.437Z,11.14
2022-12-23T11:24:16.576Z,11.09
2022-12-23T11:26:51.182Z,11.02
2022-12-23T11:29:22.956Z,11.00
2022-12-23T11:31:50.132Z,11.42
2022-12-23T11:34:21.499Z,12.10
2022-12-23T11:36:58.683Z,12.65
2022-12-23T11:39:34.019Z,12.92
2022-12-23T11:42:17.893Z,12.89
2022-12-23T11:44:46.493Z,12.88
2022-12-23T11:47:23.802Z,13.03
2022-12-23T11:49:52.978Z,13.17
2022-12-23T11:52:21.422Z,13.08
2022-12-23T11:54:54.940Z,12.83
2022-12-23T11:57:38.736Z,12.97
2022-12-23T12:00:07.807Z,13.40
2022-12-23T12:02:40.769Z,13.55
2022-12-23T12:05:16.642Z,13.52
2022-12-23T12:07:46.766Z,13.37
2022-12-23T12:10:18.288Z,13.18
2022-12-23T12:12:49.956Z,12.95
2022-12-23T12:15:44.203Z,12.72
2022-12-23T12:18:13.607Z,12.50
2022-12-23T12:21:07.358Z,12.31
2022-12-23T12:23:45.607Z,12.13
2022-12-23T12:26:28.664Z,11.98
2022-12-23T12:29:13.999Z,11.78
2022-12-23T12:31:46.160Z,11.58
2022-12-23T12:34:44.486Z,11.42
2022-12-23T12:37:38.261Z,11.23
2022-12-23T12:40:20.512Z,10.89
2022-12-23T12:42:59.967Z,11.01
2022-12-23T12:45:48.803Z,10.87
2022-12-23T12:48:25.283Z,10.71
2022-12-23T12:50:59.933Z,10.52
2022-12-23T12:53:27.084Z,10.36
2022-12-23T12:56:00.145Z,10.22
2022-12-23T12:58:27.063Z,10.06
2022-12-23T13:01:12.856Z,9.95
2022-12-23T13:04:07.803Z,9.87
2022-12-23T13:06:41.251Z,10.60
2022-12-23T13:09:38.860Z,11.17
2022-12-23T13:12:12.386Z,11.10
2022-12-23T13:15:00.695Z,10.83
2022-12-23T13:17:38.324Z,10.54
2022-12-23T13:20:24.579Z,10.25
2022-12-23T13:22:54.356Z,9.96
2022-12-23T13:25:24.240Z,9.73
2022-12-23T13:27:58.754Z,9.53
2022-12-23T13:30:32.250Z,9.31
2022-12-23T13:33:05.169Z,9.13
2022-12-23T13:35:50.552Z,8.93
2022-12-23T13:38:55.449Z,8.75
2022-12-23T13:41:36.208Z,9.54
2022-12-23T13:44:07.601Z,10.05
2022-12-23T13:46:41.225Z,10.02
2022-12-23T13:49:11.427Z,9.77
2022-12-23T13:52:03.762Z,9.52
2022-12-23T13:54:49.865Z,9.20
2022-12-23T13:57:42.192Z,8.96
2022-12-23T14:00:18.513Z,8.69
2022-12-23T14:02:55.125Z,8.47
2022-12-23T14:05:42.430Z,8.16
2022-12-23T14:08:18.312Z,7.93
2022-12-23T14:11:02.295Z,8.63
2022-12-23T14:13:49.801Z,9.29
2022-12-23T14:16:22.871Z,9.21
2022-12-23T14:19:08.641Z,8.97
2022-12-23T14:21:47.826Z,8.65
2022-12-23T14:24:27.673Z,8.39
2022-12-23T14:27:16.688Z,8.16
2022-12-23T14:30:01.519Z,7.95
2022-12-23T14:32:39.616Z,7.76
2022-12-23T14:35:22.648Z,8.40
2022-12-23T14:38:14.496Z,9.05
2022-12-23T14:40:55.072Z,9.04
2022-12-23T14:43:21.985Z,8.82
2022-12-23T14:45:50.408Z,8.59
2022-12-23T14:48:35.679Z,8.31
2022-12-23T14:51:04.088Z,8.02
2022-12-23T14:53:31.952Z,7.79
2022-12-23T14:56:26.852Z,7.58
2022-12-23T14:59:18.861Z,8.17
2022-12-23T15:01:54.114Z,8.70
2022-12-23T15:04:23.843Z,8.66
2022-12-23T15:06:53.573Z,8.45
2022-12-23T15:09:31.380Z,8.18
2022-12-23T15:11:59.956Z,7.92
2022-12-23T15:14:35.676Z,7.65
2022-12-23T15:17:21.600Z,7.38
2022-12-23T15:19:48.699Z,7.13
2022-12-23T15:22:25.220Z,7.70
2022-12-23T15:24:57.143Z,8.35
2022-12-23T15:27:28.911Z,8.41
2022-12-23T15:29:57.061Z,8.17
2022-12-23T15:32:24.687Z,7.86
2022-12-23T15:34:52.022Z,7.53
2022-12-23T15:37:24.816Z,7.26
2022-12-23T15:40:00.294Z,7.04
2022-12-23T15:42:31.837Z,6.81
2022-12-23T15:44:58.765Z,7.31
2022-12-23T15:47:29.013Z,7.90
2022-12-23T15:50:01.475Z,7.99
2022-12-23T15:52:29.358Z,7.79
2022-12-23T15:55:01.761Z,7.55
2022-12-23T15:57:28.872Z,7.27
2022-12-23T15:59:57.421Z,7.05
2022-12-23T16:02:59.705Z,6.84
2022-12-23T16:05:30.063Z,6.61
2022-12-23T16:08:24.538Z,7.32
2022-12-23T16:11:14.015Z,7.96
2022-12-23T16:13:47.374Z,7.94
2022-12-23T16:16:29.820Z,7.76
2022-12-23T16:18:56.719Z,7.49
2022-12-23T16:21:24.956Z,7.25
2022-12-23T16:23:52.120Z,7.01
2022-12-23T16:26:19.573Z,6.82
2022-12-23T16:28:49.137Z,7.27
2022-12-23T16:31:19.009Z,7.81
2022-12-23T16:33:49.056Z,7.90
2022-12-23T16:36:20.909Z,7.78
2022-12-23T16:38:48.687Z,7.54
2022-12-23T16:41:15.533Z,7.29
2022-12-23T16:43:49.569Z,7.04
2022-12-23T16:46:20.952Z,7.43
2022-12-23T16:48:52.682Z,7.82
2022-12-23T16:51:20.269Z,7.82
2022-12-23T16:53:48.342Z,7.64
2022-12-23T16:56:18.369Z,7.43
2022-12-23T16:58:45.348Z,7.24
2022-12-23T17:01:22.638Z,7.01
2022-12-23T17:03:50.739Z,7.43
2022-12-23T17:06:17.657Z,7.92
2022-12-23T17:08:44.600Z,7.96
2022-12-23T17:11:18.430Z,7.80
2022-12-23T17:13:45.624Z,7.54
2022-12-23T17:16:15.346Z,7.26
2022-12-23T17:18:42.272Z,6.96
2022-12-23T17:21:31.351Z,7.32
2022-12-23T17:24:03.426Z,7.91
2022-12-23T17:26:30.497Z,7.89
2022-12-23T17:28:57.329Z,7.68
2022-12-23T17:31:27.232Z,7.41
2022-12-23T17:33:54.568Z,7.14
2022-12-23T17:36:24.241Z,6.91
2022-12-23T17:38:51.138Z,7.36
2022-12-23T17:41:23.578Z,7.97
2022-12-23T17:43:50.462Z,8.05
2022-12-23T17:46:17.744Z,7.90
2022-12-23T17:48:47.053Z,7.64
2022-12-23T17:51:17.642Z,7.37
2022-12-23T17:53:45.090Z,7.14
2022-12-23T17:56:13.177Z,6.92
2022-12-23T17:58:40.582Z,6.70
2022-12-23T18:01:10.490Z,7.19
2022-12-23T18:03:37.306Z,7.73
2022-12-23T18:06:05.643Z,7.68
2022-12-23T18:08:32.716Z,7.46
2022-12-23T18:10:59.634Z,7.26
2022-12-23T18:13:26.664Z,7.05
2022-12-23T18:15:54.426Z,6.83
2022-12-23T18:18:30.175Z,7.19
2022-12-23T18:21:02.464Z,7.73
2022-12-23T18:23:30.921Z,7.76
2022-12-23T18:25:58.018Z,7.53
2022-12-23T18:28:24.953Z,7.24
2022-12-23T18:30:52.656Z,7.01
2022-12-23T18:33:19.932Z,6.80
2022-12-23T18:35:48.419Z,7.24
2022-12-23T18:38:16.007Z,7.84
2022-12-23T18:40:43.332Z,7.90
2022-12-23T18:43:20.137Z,7.70
2022-12-23T18:45:52.435Z,7.41
2022-12-23T18:48:21.523Z,7.13
2022-12-23T18:50:48.557Z,6.84
2022-12-23T18:53:23.401Z,7.23
2022-12-23T18:55:51.379Z,7.78
2022-12-23T18:58:18.855Z,7.82
2022-12-23T19:00:46.319Z,7.61
2022-12-23T19:03:27.596Z,7.36
2022-12-23T21:52:35.241Z,3.19
2022-12-23T21:55:02.193Z,4.51
2022-12-23T21:57:29.350Z,5.84
2022-12-23T21:59:56.249Z,6.45
2022-12-23T22:02:23.178Z,6.53
2022-12-23T22:04:50.235Z,6.41
2022-12-23T22:07:17.045Z,6.24
2022-12-23T22:09:44.017Z,6.05
2022-12-23T22:12:10.887Z,6.55
2022-12-23T22:14:37.922Z,7.16
2022-12-23T22:17:04.760Z,7.25
2022-12-23T22:19:31.670Z,7.12
2022-12-23T22:21:58.503Z,6.91
2022-12-23T22:24:25.597Z,6.69
2022-12-23T22:26:52.495Z,7.07
2022-12-23T22:29:19.380Z,7.61
2022-12-23T22:31:49.957Z,7.68
2022-12-23T22:34:19.112Z,7.45
2022-12-23T22:36:46.089Z,7.11
2022-12-23T22:39:17.727Z,6.81
2022-12-23T22:41:47.501Z,6.51
2022-12-23T22:44:15.066Z,6.94
2022-12-23T22:46:42.064Z,7.50
2022-12-23T22:49:12.687Z,7.57
2022-12-23T22:51:39.890Z,7.42
2022-12-23T22:54:06.789Z,7.21
2022-12-23T22:56:33.739Z,7.00
2022-12-23T22:59:01.014Z,6.78
2022-12-23T23:01:32.562Z,7.22
2022-12-23T23:04:00.396Z,7.85
2022-12-23T23:06:28.351Z,7.92
2022-12-23T23:08:55.552Z,7.71
2022-12-23T23:11:22.985Z,7.42
2022-12-23T23:13:50.802Z,7.13
2022-12-23T23:16:17.851Z,6.82
2022-12-23T23:18:44.970Z,7.19
2022-12-23T23:21:12.663Z,7.72
2022-12-23T23:23:39.616Z,7.73
2022-12-23T23:26:08.706Z,7.47
2022-12-23T23:28:35.971Z,7.17
2022-12-23T23:31:31.916Z,6.84
2022-12-23T23:33:49.672Z,6.52
2022-12-23T23:36:16.544Z,7.02
2022-12-23T23:38:43.614Z,7.57
2022-12-23T23:41:10.482Z,7.59
2022-12-23T23:43:37.283Z,7.27
2022-12-23T23:46:04.684Z,6.95
2022-12-23T23:48:31.948Z,6.62
2022-12-23T23:51:06.103Z,6.34
2022-12-23T23:53:33.202Z,6.77
2022-12-23T23:56:05.132Z,7.33
2022-12-23T23:58:33.747Z,7.36
